Accueil
METAR-TAF:

METAR-TAF

Aéroports :

Bagdad, Irak

Aéroport international de Bagdad

latitude: 33-15-45N, longitude: 44-14-04E, altitude: 35 m

Observation

Le bulletin a été fait il y a 1 heure et 7 minutes, à 03:00 UTC
Vent 2 kt de direction variable
Température 21°C
Humidité 30%
Pression 1012 hPa
Visibilité: 9000 m
Nuages fragmentés à une hauteur de 3000 ft

METAR: ORBI 240300Z VRB02KT 9000 BKN030 21/03 Q1012

Heure: 07:07 (04:07 UTC)

Prévision

Le bulletin a été fait il y a 6 heures et 7 minutes, à 22:00 UTC
Prévision valable du 24 à 00 UTC au 24 à 24 UTC
Vent 5 kt de est
Visibilité: 8000 m
Quelques nuages à une hauteur de 4000 ft

TAF: ORBI 232200Z 2400/2424 08005KT 8000 FEW040

Observations et prévisions météorologiques de plus de 4000 aéroports (messages METAR et TAF).

Les stations disponibles sont représentées par des disques jaunes et rouges sur la carte.

Passer la souris dessus pour voir le nom de la station.

Cliquer dessus pour voir les observations et prévisions météorologiques.

Pour changer de carte: cliquez sur les boutons verts avec une croix noire pour zoomer, sur le bouton vert avec un tiret pour effectuer un zoom arrière, ou sur les flèches vertes pour les cartes adjacentes.


METAR-TAF: